Pottersville, Missouri
Current Conditions -  °F | °C
As of 1:53 PM on Thursday 29 Jan 2015 (Local Time) from KUNO Reporting Station
Overcast Overcast  
Wind Chill: 32°   Ceiling: 2000
Heat Index: 40°   Visibility: 10mi
Dew Point: 30°   Wind: 15mph
Humidity: 68%   Direction: 330°NNW
Pressure: 30.24"   Gusts: 25mph
Location:  36.7°N, 92.03°W
Report Text: KUNO 291953Z AUTO 33013G22KT 10SM OVC020 04/M01 A3024 RMK AO2 PK WND 32026/1901 SLP242 T00441011
Loading
Personal Weather Stations






























Interactive Weather Map New forecast layout! Learn more

10-Day Weather Forecast

Advertisements
Track Severe Weather on mobile